sensor_id;sensor_type;location;lat;lon;timestamp;temperature;humidity
41060;DHT22;26811;53.160;8.202;2023-11-21T00:03:22;8.50;99.90
41060;DHT22;26811;53.160;8.202;2023-11-21T00:08:23;8.50;99.90
41060;DHT22;26811;53.160;8.202;2023-11-21T00:13:24;8.50;99.90
41060;DHT22;26811;53.160;8.202;2023-11-21T00:18:24;8.50;99.90
41060;DHT22;26811;53.160;8.202;2023-11-21T00:23:25;8.50;99.90
41060;DHT22;26811;53.160;8.202;2023-11-21T00:28:26;8.50;99.90
41060;DHT22;26811;53.160;8.202;2023-11-21T00:33:27;8.50;99.90
41060;DHT22;26811;53.160;8.202;2023-11-21T00:38:27;8.50;99.90
41060;DHT22;26811;53.160;8.202;2023-11-21T00:43:28;8.50;99.90
41060;DHT22;26811;53.160;8.202;2023-11-21T00:48:29;8.50;99.90
41060;DHT22;26811;53.160;8.202;2023-11-21T00:53:29;8.60;99.90
41060;DHT22;26811;53.160;8.202;2023-11-21T00:58:30;8.60;99.90
41060;DHT22;26811;53.160;8.202;2023-11-21T01:03:30;8.60;99.90
41060;DHT22;26811;53.160;8.202;2023-11-21T01:08:31;8.60;99.90
41060;DHT22;26811;53.160;8.202;2023-11-21T01:13:31;8.60;99.90
41060;DHT22;26811;53.160;8.202;2023-11-21T01:18:32;8.70;99.90
41060;DHT22;26811;53.160;8.202;2023-11-21T01:23:33;8.70;99.90
41060;DHT22;26811;53.160;8.202;2023-11-21T01:28:33;8.70;99.90
41060;DHT22;26811;53.160;8.202;2023-11-21T01:33:34;8.70;99.90
41060;DHT22;26811;53.160;8.202;2023-11-21T01:38:34;8.70;99.90
41060;DHT22;26811;53.160;8.202;2023-11-21T01:43:35;8.80;99.90
41060;DHT22;26811;53.160;8.202;2023-11-21T01:48:36;8.90;99.90
41060;DHT22;26811;53.160;8.202;2023-11-21T01:53:36;8.90;99.90
41060;DHT22;26811;53.160;8.202;2023-11-21T01:58:37;8.90;99.90
41060;DHT22;26811;53.160;8.202;2023-11-21T02:03:38;8.90;99.90
41060;DHT22;26811;53.160;8.202;2023-11-21T02:08:38;9.00;99.90
41060;DHT22;26811;53.160;8.202;2023-11-21T02:13:40;9.00;99.90
41060;DHT22;26811;53.160;8.202;2023-11-21T02:18:43;9.00;99.90
41060;DHT22;26811;53.160;8.202;2023-11-21T02:23:44;9.00;99.90
41060;DHT22;26811;53.160;8.202;2023-11-21T02:28:46;9.10;99.90
41060;DHT22;26811;53.160;8.202;2023-11-21T02:33:48;9.10;99.90
41060;DHT22;26811;53.160;8.202;2023-11-21T02:38:48;9.10;99.90
41060;DHT22;26811;53.160;8.202;2023-11-21T02:43:49;9.10;99.90
41060;DHT22;26811;53.160;8.202;2023-11-21T02:48:49;9.10;99.90
41060;DHT22;26811;53.160;8.202;2023-11-21T02:53:51;9.10;99.90
41060;DHT22;26811;53.160;8.202;2023-11-21T02:58:52;9.10;99.90
41060;DHT22;26811;53.160;8.202;2023-11-21T03:03:53;9.10;99.90
41060;DHT22;26811;53.160;8.202;2023-11-21T03:08:56;9.10;99.90
41060;DHT22;26811;53.160;8.202;2023-11-21T03:13:56;9.10;99.90
41060;DHT22;26811;53.160;8.202;2023-11-21T03:18:57;9.10;99.90
41060;DHT22;26811;53.160;8.202;2023-11-21T03:23:57;9.10;99.90
41060;DHT22;26811;53.160;8.202;2023-11-21T03:29:00;9.10;99.90
41060;DHT22;26811;53.160;8.202;2023-11-21T03:34:00;9.10;99.90
41060;DHT22;26811;53.160;8.202;2023-11-21T03:39:01;9.10;99.90
41060;DHT22;26811;53.160;8.202;2023-11-21T03:44:01;9.10;99.90
41060;DHT22;26811;53.160;8.202;2023-11-21T03:49:02;9.10;99.90
41060;DHT22;26811;53.160;8.202;2023-11-21T03:54:03;9.10;99.90
41060;DHT22;26811;53.160;8.202;2023-11-21T03:59:04;9.10;99.90
41060;DHT22;26811;53.160;8.202;2023-11-21T04:04:05;9.00;99.90
41060;DHT22;26811;53.160;8.202;2023-11-21T04:09:05;9.00;99.90
41060;DHT22;26811;53.160;8.202;2023-11-21T04:14:06;9.00;99.90
41060;DHT22;26811;53.160;8.202;2023-11-21T04:19:06;9.00;99.90
41060;DHT22;26811;53.160;8.202;2023-11-21T04:24:07;9.00;99.90
41060;DHT22;26811;53.160;8.202;2023-11-21T04:29:08;8.90;99.90
41060;DHT22;26811;53.160;8.202;2023-11-21T04:34:08;8.90;99.90
41060;DHT22;26811;53.160;8.202;2023-11-21T04:39:09;8.90;99.90
41060;DHT22;26811;53.160;8.202;2023-11-21T04:44:09;8.80;99.90
41060;DHT22;26811;53.160;8.202;2023-11-21T04:49:10;8.80;99.90
41060;DHT22;26811;53.160;8.202;2023-11-21T04:54:11;8.70;99.90
41060;DHT22;26811;53.160;8.202;2023-11-21T04:59:11;8.60;99.90
41060;DHT22;26811;53.160;8.202;2023-11-21T05:04:12;8.60;99.90
41060;DHT22;26811;53.160;8.202;2023-11-21T05:09:13;8.60;99.90
41060;DHT22;26811;53.160;8.202;2023-11-21T05:14:13;8.50;99.90
41060;DHT22;26811;53.160;8.202;2023-11-21T05:19:14;8.50;99.90
41060;DHT22;26811;53.160;8.202;2023-11-21T05:24:14;8.50;99.90
41060;DHT22;26811;53.160;8.202;2023-11-21T05:29:15;8.50;99.90
41060;DHT22;26811;53.160;8.202;2023-11-21T05:34:16;8.40;99.90
41060;DHT22;26811;53.160;8.202;2023-11-21T05:39:16;8.40;99.90
41060;DHT22;26811;53.160;8.202;2023-11-21T05:44:21;8.30;99.90
41060;DHT22;26811;53.160;8.202;2023-11-21T05:49:21;8.30;99.90
41060;DHT22;26811;53.160;8.202;2023-11-21T05:54:22;8.30;99.90
41060;DHT22;26811;53.160;8.202;2023-11-21T05:59:24;8.20;99.90
41060;DHT22;26811;53.160;8.202;2023-11-21T06:04:24;8.20;99.90
41060;DHT22;26811;53.160;8.202;2023-11-21T06:09:25;8.10;99.90
41060;DHT22;26811;53.160;8.202;2023-11-21T06:14:25;8.10;99.90
41060;DHT22;26811;53.160;8.202;2023-11-21T06:19:26;8.10;99.90
41060;DHT22;26811;53.160;8.202;2023-11-21T06:24:26;8.00;99.90
41060;DHT22;26811;53.160;8.202;2023-11-21T06:29:27;7.90;99.90
41060;DHT22;26811;53.160;8.202;2023-11-21T06:34:27;8.00;99.90
41060;DHT22;26811;53.160;8.202;2023-11-21T06:39:28;8.00;99.90
41060;DHT22;26811;53.160;8.202;2023-11-21T06:44:28;7.90;99.90
41060;DHT22;26811;53.160;8.202;2023-11-21T06:49:29;7.70;99.90
41060;DHT22;26811;53.160;8.202;2023-11-21T06:54:31;7.60;99.90
41060;DHT22;26811;53.160;8.202;2023-11-21T06:59:31;7.40;99.90
41060;DHT22;26811;53.160;8.202;2023-11-21T07:04:35;7.30;99.90
41060;DHT22;26811;53.160;8.202;2023-11-21T07:09:36;7.30;99.90
41060;DHT22;26811;53.160;8.202;2023-11-21T07:14:37;7.30;99.90
41060;DHT22;26811;53.160;8.202;2023-11-21T07:19:39;7.20;99.90
41060;DHT22;26811;53.160;8.202;2023-11-21T07:24:40;7.30;99.90
41060;DHT22;26811;53.160;8.202;2023-11-21T07:29:41;7.30;99.90
41060;DHT22;26811;53.160;8.202;2023-11-21T07:34:41;7.30;99.90
41060;DHT22;26811;53.160;8.202;2023-11-21T07:39:42;7.30;99.90
41060;DHT22;26811;53.160;8.202;2023-11-21T07:44:42;7.30;99.90
41060;DHT22;26811;53.160;8.202;2023-11-21T07:49:43;7.30;99.90
41060;DHT22;26811;53.160;8.202;2023-11-21T07:54:45;7.20;99.90
41060;DHT22;26811;53.160;8.202;2023-11-21T07:59:45;7.20;99.90
41060;DHT22;26811;53.160;8.202;2023-11-21T08:04:46;7.20;99.90
41060;DHT22;26811;53.160;8.202;2023-11-21T08:09:49;7.20;99.90
41060;DHT22;26811;53.160;8.202;2023-11-21T08:14:50;7.30;99.90
41060;DHT22;26811;53.160;8.202;2023-11-21T08:19:50;7.30;99.90
41060;DHT22;26811;53.160;8.202;2023-11-21T08:24:51;7.40;99.90
41060;DHT22;26811;53.160;8.202;2023-11-21T08:29:52;7.40;99.90
41060;DHT22;26811;53.160;8.202;2023-11-21T08:34:52;7.40;99.90
41060;DHT22;26811;53.160;8.202;2023-11-21T08:39:53;7.50;99.90
41060;DHT22;26811;53.160;8.202;2023-11-21T08:44:54;7.70;99.90
41060;DHT22;26811;53.160;8.202;2023-11-21T08:49:54;7.90;99.90
41060;DHT22;26811;53.160;8.202;2023-11-21T08:54:55;7.90;99.90
41060;DHT22;26811;53.160;8.202;2023-11-21T09:00:03;7.90;99.90
41060;DHT22;26811;53.160;8.202;2023-11-21T09:05:08;7.90;99.90
41060;DHT22;26811;53.160;8.202;2023-11-21T09:10:10;7.80;99.90
41060;DHT22;26811;53.160;8.202;2023-11-21T09:15:10;7.70;99.90
41060;DHT22;26811;53.160;8.202;2023-11-21T09:20:12;7.70;99.90
41060;DHT22;26811;53.160;8.202;2023-11-21T09:25:12;7.70;99.90
41060;DHT22;26811;53.160;8.202;2023-11-21T09:30:13;7.80;99.90
41060;DHT22;26811;53.160;8.202;2023-11-21T09:35:17;7.70;99.90
41060;DHT22;26811;53.160;8.202;2023-11-21T09:40:21;7.80;99.90
41060;DHT22;26811;53.160;8.202;2023-11-21T09:45:26;7.80;99.90
41060;DHT22;26811;53.160;8.202;2023-11-21T09:50:27;7.70;99.90
41060;DHT22;26811;53.160;8.202;2023-11-21T09:55:28;7.70;99.90
41060;DHT22;26811;53.160;8.202;2023-11-21T10:00:30;7.70;99.90
41060;DHT22;26811;53.160;8.202;2023-11-21T10:05:33;7.80;99.90
41060;DHT22;26811;53.160;8.202;2023-11-21T10:10:36;7.90;99.90
41060;DHT22;26811;53.160;8.202;2023-11-21T10:15:36;8.00;99.90
41060;DHT22;26811;53.160;8.202;2023-11-21T10:20:38;8.10;99.90
41060;DHT22;26811;53.160;8.202;2023-11-21T10:25:38;8.10;99.90
41060;DHT22;26811;53.160;8.202;2023-11-21T10:30:39;8.10;99.90
41060;DHT22;26811;53.160;8.202;2023-11-21T10:35:47;8.10;99.90
41060;DHT22;26811;53.160;8.202;2023-11-21T10:40:52;8.10;99.90
41060;DHT22;26811;53.160;8.202;2023-11-21T10:45:52;8.10;99.90
41060;DHT22;26811;53.160;8.202;2023-11-21T10:50:58;8.00;99.90
41060;DHT22;26811;53.160;8.202;2023-11-21T10:56:05;7.80;99.90
41060;DHT22;26811;53.160;8.202;2023-11-21T11:01:11;7.90;99.90
41060;DHT22;26811;53.160;8.202;2023-11-21T11:06:12;8.00;99.90
41060;DHT22;26811;53.160;8.202;2023-11-21T11:11:13;8.10;99.90
41060;DHT22;26811;53.160;8.202;2023-11-21T11:16:15;8.20;99.90
41060;DHT22;26811;53.160;8.202;2023-11-21T11:21:28;8.30;99.90
41060;DHT22;26811;53.160;8.202;2023-11-21T11:37:25;8.40;99.90
41060;DHT22;26811;53.160;8.202;2023-11-21T11:42:26;8.30;99.90
41060;DHT22;26811;53.160;8.202;2023-11-21T11:47:28;8.20;99.90
41060;DHT22;26811;53.160;8.202;2023-11-21T11:52:43;8.20;99.90
41060;DHT22;26811;53.160;8.202;2023-11-21T11:57:45;8.10;99.90
41060;DHT22;26811;53.160;8.202;2023-11-21T12:02:49;8.10;99.90
41060;DHT22;26811;53.160;8.202;2023-11-21T12:07:50;8.10;99.90
41060;DHT22;26811;53.160;8.202;2023-11-21T12:12:59;8.00;99.90
41060;DHT22;26811;53.160;8.202;2023-11-21T12:18:00;8.00;99.90
41060;DHT22;26811;53.160;8.202;2023-11-21T12:23:01;8.00;99.90
41060;DHT22;26811;53.160;8.202;2023-11-21T12:28:02;8.00;99.90
41060;DHT22;26811;53.160;8.202;2023-11-21T12:33:04;7.90;99.90
41060;DHT22;26811;53.160;8.202;2023-11-21T12:38:06;7.90;99.90
41060;DHT22;26811;53.160;8.202;2023-11-21T12:43:09;7.90;99.90
41060;DHT22;26811;53.160;8.202;2023-11-21T12:48:10;7.90;99.90
41060;DHT22;26811;53.160;8.202;2023-11-21T12:53:12;7.90;99.90
41060;DHT22;26811;53.160;8.202;2023-11-21T12:58:13;7.70;99.90
41060;DHT22;26811;53.160;8.202;2023-11-21T13:03:16;7.70;99.90
41060;DHT22;26811;53.160;8.202;2023-11-21T13:08:22;7.70;99.90
41060;DHT22;26811;53.160;8.202;2023-11-21T13:13:24;7.70;99.90
41060;DHT22;26811;53.160;8.202;2023-11-21T13:18:25;7.80;99.90
41060;DHT22;26811;53.160;8.202;2023-11-21T13:23:29;7.80;99.90
41060;DHT22;26811;53.160;8.202;2023-11-21T13:28:35;7.80;99.90
41060;DHT22;26811;53.160;8.202;2023-11-21T13:33:37;7.80;99.90
41060;DHT22;26811;53.160;8.202;2023-11-21T13:38:39;7.80;99.90
41060;DHT22;26811;53.160;8.202;2023-11-21T13:43:42;7.80;99.90
41060;DHT22;26811;53.160;8.202;2023-11-21T13:48:49;7.80;99.90
41060;DHT22;26811;53.160;8.202;2023-11-21T13:53:56;7.90;99.90
41060;DHT22;26811;53.160;8.202;2023-11-21T13:58:56;7.90;99.90
41060;DHT22;26811;53.160;8.202;2023-11-21T14:04:00;7.90;99.90
41060;DHT22;26811;53.160;8.202;2023-11-21T14:09:22;7.80;99.90
41060;DHT22;26811;53.160;8.202;2023-11-21T14:14:25;7.90;99.90
41060;DHT22;26811;53.160;8.202;2023-11-21T14:19:26;7.80;99.90
41060;DHT22;26811;53.160;8.202;2023-11-21T14:24:32;7.80;99.90
41060;DHT22;26811;53.160;8.202;2023-11-21T14:29:33;7.80;99.90
41060;DHT22;26811;53.160;8.202;2023-11-21T14:34:39;7.80;99.90
41060;DHT22;26811;53.160;8.202;2023-11-21T14:39:41;7.70;99.90
41060;DHT22;26811;53.160;8.202;2023-11-21T14:44:45;7.60;99.90
41060;DHT22;26811;53.160;8.202;2023-11-21T14:49:45;7.60;99.90
41060;DHT22;26811;53.160;8.202;2023-11-21T14:54:52;7.60;99.90
41060;DHT22;26811;53.160;8.202;2023-11-21T15:00:13;7.40;99.90
41060;DHT22;26811;53.160;8.202;2023-11-21T15:05:32;7.30;99.90
41060;DHT22;26811;53.160;8.202;2023-11-21T15:10:35;7.20;99.90
41060;DHT22;26811;53.160;8.202;2023-11-21T15:15:50;7.10;99.90
41060;DHT22;26811;53.160;8.202;2023-11-21T15:20:50;7.10;99.90
41060;DHT22;26811;53.160;8.202;2023-11-21T15:25:51;7.00;99.90
41060;DHT22;26811;53.160;8.202;2023-11-21T15:30:52;7.00;99.90
41060;DHT22;26811;53.160;8.202;2023-11-21T15:35:53;7.00;99.90
41060;DHT22;26811;53.160;8.202;2023-11-21T15:40:54;7.00;99.90
41060;DHT22;26811;53.160;8.202;2023-11-21T15:45:55;7.00;99.90
41060;DHT22;26811;53.160;8.202;2023-11-21T15:50:55;7.00;99.90
41060;DHT22;26811;53.160;8.202;2023-11-21T15:55:58;7.00;99.90
41060;DHT22;26811;53.160;8.202;2023-11-21T16:00:58;6.90;99.90
41060;DHT22;26811;53.160;8.202;2023-11-21T16:05:59;6.90;99.90
41060;DHT22;26811;53.160;8.202;2023-11-21T16:10:59;6.90;99.90
41060;DHT22;26811;53.160;8.202;2023-11-21T16:16:00;6.80;99.90
41060;DHT22;26811;53.160;8.202;2023-11-21T16:21:01;6.80;99.90
41060;DHT22;26811;53.160;8.202;2023-11-21T16:26:02;6.80;99.90
41060;DHT22;26811;53.160;8.202;2023-11-21T16:31:05;6.80;99.90
41060;DHT22;26811;53.160;8.202;2023-11-21T16:36:05;6.80;99.90
41060;DHT22;26811;53.160;8.202;2023-11-21T16:41:06;6.80;99.90
41060;DHT22;26811;53.160;8.202;2023-11-21T16:46:11;6.80;99.90
41060;DHT22;26811;53.160;8.202;2023-11-21T16:51:14;6.80;99.90
41060;DHT22;26811;53.160;8.202;2023-11-21T16:56:17;6.80;99.90
41060;DHT22;26811;53.160;8.202;2023-11-21T17:01:17;6.80;99.90
41060;DHT22;26811;53.160;8.202;2023-11-21T17:06:19;6.70;99.90
41060;DHT22;26811;53.160;8.202;2023-11-21T17:11:20;6.70;99.90
41060;DHT22;26811;53.160;8.202;2023-11-21T17:16:20;6.70;99.90
41060;DHT22;26811;53.160;8.202;2023-11-21T17:21:22;6.60;99.90
41060;DHT22;26811;53.160;8.202;2023-11-21T17:26:22;6.70;99.90
41060;DHT22;26811;53.160;8.202;2023-11-21T17:31:24;6.60;99.90
41060;DHT22;26811;53.160;8.202;2023-11-21T17:36:24;6.60;99.90
41060;DHT22;26811;53.160;8.202;2023-11-21T17:41:25;6.60;99.90
41060;DHT22;26811;53.160;8.202;2023-11-21T17:46:25;6.60;99.90
41060;DHT22;26811;53.160;8.202;2023-11-21T17:51:26;6.50;99.90
41060;DHT22;26811;53.160;8.202;2023-11-21T17:56:26;6.50;99.90
41060;DHT22;26811;53.160;8.202;2023-11-21T18:01:28;6.60;99.90
41060;DHT22;26811;53.160;8.202;2023-11-21T18:06:33;6.60;99.90
41060;DHT22;26811;53.160;8.202;2023-11-21T18:11:34;6.60;99.90
41060;DHT22;26811;53.160;8.202;2023-11-21T18:16:35;6.50;99.90
41060;DHT22;26811;53.160;8.202;2023-11-21T18:21:39;6.50;99.90
41060;DHT22;26811;53.160;8.202;2023-11-21T18:26:40;6.50;99.90
41060;DHT22;26811;53.160;8.202;2023-11-21T18:31:41;6.50;99.90
41060;DHT22;26811;53.160;8.202;2023-11-21T18:36:43;6.50;99.90
41060;DHT22;26811;53.160;8.202;2023-11-21T18:41:45;6.50;99.90
41060;DHT22;26811;53.160;8.202;2023-11-21T18:46:45;6.40;99.90
41060;DHT22;26811;53.160;8.202;2023-11-21T18:51:46;6.40;99.90
41060;DHT22;26811;53.160;8.202;2023-11-21T18:56:48;6.40;99.90
41060;DHT22;26811;53.160;8.202;2023-11-21T19:01:48;6.30;99.90
41060;DHT22;26811;53.160;8.202;2023-11-21T19:06:50;6.20;99.90
41060;DHT22;26811;53.160;8.202;2023-11-21T19:11:50;6.20;99.90
41060;DHT22;26811;53.160;8.202;2023-11-21T19:16:51;6.20;99.90
41060;DHT22;26811;53.160;8.202;2023-11-21T19:21:51;6.10;99.90
41060;DHT22;26811;53.160;8.202;2023-11-21T19:26:52;6.10;99.90
41060;DHT22;26811;53.160;8.202;2023-11-21T19:31:52;6.10;99.90
41060;DHT22;26811;53.160;8.202;2023-11-21T19:36:54;6.10;99.90
41060;DHT22;26811;53.160;8.202;2023-11-21T19:41:55;6.10;99.90
41060;DHT22;26811;53.160;8.202;2023-11-21T19:46:56;6.00;99.90
41060;DHT22;26811;53.160;8.202;2023-11-21T19:51:56;5.90;99.90
41060;DHT22;26811;53.160;8.202;2023-11-21T19:56:57;5.90;99.90
41060;DHT22;26811;53.160;8.202;2023-11-21T20:01:57;5.80;99.90
41060;DHT22;26811;53.160;8.202;2023-11-21T20:06:59;5.70;99.90
41060;DHT22;26811;53.160;8.202;2023-11-21T20:12:00;5.60;99.90
41060;DHT22;26811;53.160;8.202;2023-11-21T20:17:00;5.50;99.90
41060;DHT22;26811;53.160;8.202;2023-11-21T20:22:03;5.30;99.90
41060;DHT22;26811;53.160;8.202;2023-11-21T20:27:05;5.20;99.90
41060;DHT22;26811;53.160;8.202;2023-11-21T20:32:05;5.10;99.90
41060;DHT22;26811;53.160;8.202;2023-11-21T20:37:06;5.00;99.90
41060;DHT22;26811;53.160;8.202;2023-11-21T20:42:07;4.90;99.90
41060;DHT22;26811;53.160;8.202;2023-11-21T20:47:09;4.80;99.90
41060;DHT22;26811;53.160;8.202;2023-11-21T20:52:09;4.80;99.90
41060;DHT22;26811;53.160;8.202;2023-11-21T20:57:10;4.70;99.90
41060;DHT22;26811;53.160;8.202;2023-11-21T21:02:12;4.60;99.90
41060;DHT22;26811;53.160;8.202;2023-11-21T21:07:13;4.50;99.90
41060;DHT22;26811;53.160;8.202;2023-11-21T21:12:14;4.40;99.90
41060;DHT22;26811;53.160;8.202;2023-11-21T21:17:14;4.30;99.90
41060;DHT22;26811;53.160;8.202;2023-11-21T21:22:15;4.30;99.90
41060;DHT22;26811;53.160;8.202;2023-11-21T21:27:16;4.20;99.90
41060;DHT22;26811;53.160;8.202;2023-11-21T21:32:16;4.10;99.90
41060;DHT22;26811;53.160;8.202;2023-11-21T21:37:17;4.00;99.90
41060;DHT22;26811;53.160;8.202;2023-11-21T21:42:18;3.90;99.90
41060;DHT22;26811;53.160;8.202;2023-11-21T21:47:19;3.80;99.90
41060;DHT22;26811;53.160;8.202;2023-11-21T21:52:19;3.80;99.90
41060;DHT22;26811;53.160;8.202;2023-11-21T21:57:20;3.70;99.90
41060;DHT22;26811;53.160;8.202;2023-11-21T22:02:20;3.60;99.90
41060;DHT22;26811;53.160;8.202;2023-11-21T22:07:21;3.60;99.90
41060;DHT22;26811;53.160;8.202;2023-11-21T22:12:22;3.50;99.90
41060;DHT22;26811;53.160;8.202;2023-11-21T22:17:23;3.50;99.90
41060;DHT22;26811;53.160;8.202;2023-11-21T22:22:23;3.40;99.90
41060;DHT22;26811;53.160;8.202;2023-11-21T22:27:24;3.30;99.90
41060;DHT22;26811;53.160;8.202;2023-11-21T22:32:24;3.30;99.90
41060;DHT22;26811;53.160;8.202;2023-11-21T22:37:25;3.30;99.90
41060;DHT22;26811;53.160;8.202;2023-11-21T22:42:25;3.20;99.90
41060;DHT22;26811;53.160;8.202;2023-11-21T22:47:26;3.20;99.90
41060;DHT22;26811;53.160;8.202;2023-11-21T22:52:26;3.10;99.90
41060;DHT22;26811;53.160;8.202;2023-11-21T22:57:27;3.10;99.90
41060;DHT22;26811;53.160;8.202;2023-11-21T23:02:28;3.10;99.90
41060;DHT22;26811;53.160;8.202;2023-11-21T23:07:28;3.00;99.90
41060;DHT22;26811;53.160;8.202;2023-11-21T23:12:29;3.00;99.90
41060;DHT22;26811;53.160;8.202;2023-11-21T23:17:29;2.90;99.90
41060;DHT22;26811;53.160;8.202;2023-11-21T23:22:30;2.90;99.90
41060;DHT22;26811;53.160;8.202;2023-11-21T23:27:32;2.80;99.90
41060;DHT22;26811;53.160;8.202;2023-11-21T23:32:33;2.80;99.90
41060;DHT22;26811;53.160;8.202;2023-11-21T23:37:34;2.70;99.90
41060;DHT22;26811;53.160;8.202;2023-11-21T23:42:34;2.70;99.90
41060;DHT22;26811;53.160;8.202;2023-11-21T23:47:35;2.60;99.90
41060;DHT22;26811;53.160;8.202;2023-11-21T23:52:36;2.60;99.90
41060;DHT22;26811;53.160;8.202;2023-11-21T23:57:36;2.60;99.90
